Time;durP1;ratioP1;P1;durP2;ratioP2;P2;SDS_P1;SDS_P2;PMS_P1;PMS_P2;Temp;Humidity;BMP_temperature;BMP_pressure;BME280_temperature;BME280_humidity;BME280_pressure;Samples;Min_cycle;Max_cycle;Signal;HPM_P1;HPM_P2
2023/11/30 00:02:06;;;;;;;2.65;2.40;;;20.60;41.40;21.30;100042.00;;;;5013440;28;20107;-47
2023/11/30 00:04:32;;;;;;;3.72;3.38;;;20.60;41.40;21.30;100042.00;;;;5013397;28;20726;-46
2023/11/30 00:06:58;;;;;;;5.30;2.42;;;20.60;41.40;21.30;100034.00;;;;5016001;28;20117;-45
2023/11/30 00:09:24;;;;;;;2.58;2.38;;;20.60;41.40;21.30;100036.00;;;;5015119;28;20029;-45
2023/11/30 00:11:50;;;;;;;2.22;2.03;;;20.60;41.50;21.30;100031.00;;;;5015000;28;20123;-45
2023/11/30 00:14:16;;;;;;;3.78;2.28;;;20.50;42.00;21.30;100036.00;;;;5019396;28;20040;-46
2023/11/30 00:16:42;;;;;;;3.75;2.80;;;20.50;41.40;21.30;100024.00;;;;5013697;28;20071;-46
2023/11/30 00:19:08;;;;;;;3.22;2.83;;;20.50;41.40;21.20;100025.00;;;;5014072;28;20116;-49
2023/11/30 00:21:34;;;;;;;1.98;1.85;;;20.50;41.40;21.20;100022.00;;;;5014019;28;20414;-50
2023/11/30 00:23:59;;;;;;;3.00;2.15;;;20.50;41.50;21.20;100030.00;;;;5012740;28;20034;-50
2023/11/30 00:26:25;;;;;;;3.67;2.60;;;20.50;41.50;21.20;100023.00;;;;5014426;28;20068;-50
2023/11/30 00:28:54;;;;;;;3.15;2.72;;;20.50;41.50;21.20;100013.00;;;;5014103;28;20707;-50
2023/11/30 00:31:20;;;;;;;4.07;2.47;;;20.50;41.60;21.20;100004.00;;;;5015904;28;20037;-51
2023/11/30 00:33:46;;;;;;;3.33;3.03;;;20.50;41.50;21.20;99995.00;;;;5015179;28;20068;-50
2023/11/30 00:36:12;;;;;;;2.40;2.17;;;20.50;41.60;21.20;99996.00;;;;4981414;28;20072;-53
2023/11/30 00:38:38;;;;;;;2.28;2.15;;;20.40;41.50;21.20;99981.00;;;;5013886;28;20050;-52
2023/11/30 00:41:04;;;;;;;3.45;3.15;;;20.40;41.60;21.20;99977.00;;;;5013121;28;20033;-50
2023/11/30 00:43:30;;;;;;;3.03;2.58;;;20.40;41.60;21.20;99966.00;;;;5011829;28;20803;-53
2023/11/30 00:45:56;;;;;;;2.90;2.70;;;20.40;41.60;21.20;99968.00;;;;5012235;28;20132;-49
2023/11/30 00:48:22;;;;;;;3.35;2.58;;;20.40;41.60;21.10;99953.00;;;;5020903;28;20081;-51
2023/11/30 00:50:48;;;;;;;3.88;3.25;;;20.40;41.70;21.10;99959.00;;;;5013190;28;20033;-53
2023/11/30 00:53:14;;;;;;;2.85;2.55;;;20.40;41.60;21.10;99962.00;;;;4997084;28;20053;-51
2023/11/30 00:55:40;;;;;;;3.08;2.78;;;20.40;41.70;21.10;99968.00;;;;5012530;28;20084;-51
2023/11/30 00:58:06;;;;;;;3.40;2.88;;;20.40;41.70;21.10;99968.00;;;;5013152;28;20030;-51
2023/11/30 01:00:32;;;;;;;2.80;2.55;;;20.40;41.70;21.10;99961.00;;;;5013853;28;20095;-50
2023/11/30 01:02:58;;;;;;;6.07;3.10;;;20.40;41.80;21.10;99953.00;;;;5010347;28;20524;-49
2023/11/30 01:05:24;;;;;;;4.38;2.83;;;20.30;41.70;21.10;99959.00;;;;5028325;28;20140;-49
2023/11/30 01:07:50;;;;;;;4.38;3.03;;;20.40;41.80;21.10;99956.00;;;;5013081;28;20133;-51
2023/11/30 01:10:16;;;;;;;3.13;2.80;;;20.40;41.80;21.10;99955.00;;;;5013791;28;20091;-49
2023/11/30 01:12:42;;;;;;;3.00;2.80;;;20.30;41.70;21.10;99950.00;;;;5014226;28;20033;-49
2023/11/30 01:15:09;;;;;;;3.35;3.05;;;20.30;41.70;21.10;99949.00;;;;5011647;28;20056;-49
2023/11/30 01:17:35;;;;;;;4.45;2.90;;;20.30;41.70;21.10;99957.00;;;;5015939;28;20710;-52
2023/11/30 01:20:01;;;;;;;3.05;2.78;;;20.30;41.70;21.10;99957.00;;;;5012458;28;20040;-49
2023/11/30 01:22:27;;;;;;;4.55;3.67;;;20.30;41.80;21.10;99953.00;;;;5013412;28;20117;-49
2023/11/30 01:24:53;;;;;;;5.95;2.83;;;20.30;41.80;21.00;99944.00;;;;5005649;28;20109;-56
2023/11/30 01:27:20;;;;;;;3.10;2.88;;;20.30;41.80;21.00;99945.00;;;;5000905;28;20033;-55
2023/11/30 01:29:45;;;;;;;4.85;3.08;;;20.30;41.80;21.00;99937.00;;;;5015254;28;20518;-50
2023/11/30 01:32:11;;;;;;;3.45;3.17;;;20.30;41.80;21.00;99939.00;;;;5007237;28;20041;-50
2023/11/30 01:34:38;;;;;;;6.03;2.70;;;20.30;41.80;21.00;99945.00;;;;5017949;28;20171;-50
2023/11/30 01:37:04;;;;;;;2.90;2.60;;;20.30;41.80;21.00;99948.00;;;;5017444;28;20479;-57
2023/11/30 01:39:30;;;;;;;2.85;2.65;;;20.30;41.90;21.00;99951.00;;;;5016920;28;20106;-51
2023/11/30 01:41:56;;;;;;;2.70;2.50;;;20.30;41.80;21.00;99948.00;;;;5016759;28;20046;-54
2023/11/30 01:44:22;;;;;;;4.72;3.05;;;20.30;42.50;21.00;99947.00;;;;5016936;28;20452;-51
2023/11/30 01:46:48;;;;;;;3.00;2.75;;;20.20;41.90;21.00;99938.00;;;;5000730;28;20029;-51
2023/11/30 01:49:14;;;;;;;3.22;2.55;;;20.30;41.90;21.00;99934.00;;;;5000592;28;20049;-51
2023/11/30 01:51:41;;;;;;;2.95;2.63;;;20.20;41.80;21.00;99936.00;;;;5014584;28;20045;-50
2023/11/30 01:54:08;;;;;;;2.55;2.45;;;20.20;41.80;21.00;99937.00;;;;5015258;28;20054;-51
2023/11/30 01:56:37;;;;;;;2.80;2.45;;;20.20;41.80;21.00;99937.00;;;;5008009;28;20040;-49
2023/11/30 01:59:04;;;;;;;5.72;2.30;;;20.20;41.80;21.00;99938.00;;;;4990638;28;20037;-50
2023/11/30 02:01:30;;;;;;;3.13;2.35;;;20.20;41.90;21.00;99942.00;;;;5001513;28;20049;-51
2023/11/30 02:04:02;;;;;;;2.38;2.28;;;20.20;41.90;21.00;99930.00;;;;5023051;28;20186;-50
2023/11/30 02:06:28;;;;;;;3.85;2.42;;;20.20;41.90;21.00;99930.00;;;;5016253;28;20386;-49
2023/11/30 02:08:54;;;;;;;2.60;2.40;;;20.20;42.10;21.00;99927.00;;;;5016152;28;20068;-48
2023/11/30 02:11:20;;;;;;;3.50;3.20;;;20.20;41.90;21.00;99927.00;;;;5031175;28;20115;-49
2023/11/30 02:13:46;;;;;;;2.22;2.03;;;20.20;41.90;21.00;99928.00;;;;5006201;28;20704;-51
2023/11/30 02:16:12;;;;;;;2.13;2.00;;;20.20;41.90;21.00;99935.00;;;;5016207;28;20025;-49
2023/11/30 02:18:38;;;;;;;3.40;2.85;;;20.20;41.90;20.90;99943.00;;;;5015915;28;20806;-49
2023/11/30 02:21:04;;;;;;;2.78;2.53;;;20.20;41.90;20.90;99936.00;;;;5015327;28;20033;-50
2023/11/30 02:23:30;;;;;;;2.28;1.92;;;20.20;41.90;20.90;99920.00;;;;5017527;28;20057;-51
2023/11/30 02:25:56;;;;;;;3.92;2.58;;;20.20;41.90;20.90;99914.00;;;;5017637;28;20038;-48
2023/11/30 02:28:22;;;;;;;2.45;1.88;;;20.20;41.90;20.90;99923.00;;;;4999761;28;20057;-48
2023/11/30 02:30:49;;;;;;;3.70;2.55;;;20.20;41.90;20.90;99929.00;;;;5015734;28;20052;-49
2023/11/30 02:33:15;;;;;;;3.75;2.70;;;20.10;41.80;20.90;99927.00;;;;5017945;28;20060;-50
2023/11/30 02:35:42;;;;;;;2.42;2.13;;;20.20;41.90;20.90;99925.00;;;;5014950;28;20056;-52
2023/11/30 02:38:08;;;;;;;3.22;2.95;;;20.20;41.90;20.90;99908.00;;;;4989262;28;20739;-46
2023/11/30 02:40:33;;;;;;;4.10;2.35;;;20.10;41.90;20.90;99910.00;;;;5016174;28;20044;-52
2023/11/30 02:42:59;;;;;;;2.47;2.10;;;20.10;41.90;20.90;99906.00;;;;5014776;28;20034;-52
2023/11/30 02:45:25;;;;;;;3.30;3.05;;;20.10;41.90;20.90;99903.00;;;;5017229;28;20118;-50
2023/11/30 02:47:51;;;;;;;3.63;2.20;;;20.10;41.90;20.90;99895.00;;;;5040186;28;20033;-50
2023/11/30 02:50:36;;;;;;;2.08;1.75;;;20.10;41.90;20.90;99886.00;;;;5016636;28;20064;-49
2023/11/30 02:53:02;;;;;;;2.80;2.15;;;20.10;41.80;20.90;99875.00;;;;5030404;28;20053;-50
2023/11/30 02:55:28;;;;;;;2.88;1.88;;;20.10;41.90;20.90;99857.00;;;;5014782;28;20048;-49
2023/11/30 02:57:54;;;;;;;3.05;1.90;;;20.10;41.90;20.90;99858.00;;;;5014090;28;20047;-49
2023/11/30 03:00:20;;;;;;;2.75;1.73;;;20.10;41.90;20.90;99854.00;;;;5013646;28;20052;-54
2023/11/30 03:02:46;;;;;;;4.53;2.13;;;20.10;41.90;20.90;99861.00;;;;5006228;28;20049;-53
2023/11/30 03:05:12;;;;;;;2.72;1.88;;;20.10;41.90;20.90;99870.00;;;;5014762;28;20458;-50
2023/11/30 03:07:57;;;;;;;3.05;1.42;;;20.10;41.90;20.90;99865.00;;;;5016154;28;20030;-49
2023/11/30 03:10:23;;;;;;;3.60;1.73;;;20.10;41.90;20.90;99868.00;;;;5015192;28;20041;-51
2023/11/30 03:12:49;;;;;;;2.25;2.10;;;20.10;41.90;20.90;99884.00;;;;5028552;28;20037;-49
2023/11/30 03:15:18;;;;;;;1.85;1.55;;;20.10;41.90;20.90;99877.00;;;;5013855;28;20042;-49
2023/11/30 03:17:47;;;;;;;2.05;1.40;;;20.10;41.90;20.80;99865.00;;;;5013669;28;20052;-53
2023/11/30 03:20:13;;;;;;;1.77;1.52;;;20.10;41.90;20.90;99863.00;;;;5014088;28;20049;-45
2023/11/30 03:22:39;;;;;;;2.17;1.92;;;20.10;41.90;20.90;99874.00;;;;4988998;28;20033;-45
2023/11/30 03:25:05;;;;;;;2.95;1.80;;;20.10;41.90;20.90;99865.00;;;;4997287;28;20450;-45
2023/11/30 03:27:31;;;;;;;2.42;2.22;;;20.10;41.80;20.90;99865.00;;;;5016111;28;20539;-46
2023/11/30 03:29:57;;;;;;;3.08;1.38;;;20.10;41.80;20.80;99855.00;;;;5013463;28;20117;-45
2023/11/30 03:32:23;;;;;;;3.92;1.50;;;20.10;41.80;20.80;99837.00;;;;5013478;28;20034;-45
2023/11/30 03:34:49;;;;;;;4.57;2.28;;;20.10;41.80;20.80;99839.00;;;;5013359;28;20076;-45
2023/11/30 03:37:15;;;;;;;1.88;1.77;;;20.00;41.80;20.80;99835.00;;;;5016575;28;20148;-45
2023/11/30 03:39:41;;;;;;;2.80;1.52;;;20.00;41.80;20.80;99836.00;;;;5012876;28;20034;-49
2023/11/30 03:42:07;;;;;;;1.23;1.20;;;20.00;41.80;20.80;99831.00;;;;5014227;28;20489;-49
2023/11/30 03:44:51;;;;;;;1.42;0.98;;;20.00;41.80;20.80;99837.00;;;;5014131;28;20040;-50
2023/11/30 03:47:17;;;;;;;1.65;1.55;;;20.00;41.80;20.80;99834.00;;;;4995817;28;20037;-49
2023/11/30 03:49:43;;;;;;;1.63;1.52;;;20.00;41.80;20.80;99828.00;;;;4997701;28;20700;-50
2023/11/30 03:52:09;;;;;;;3.38;1.63;;;20.00;41.80;20.80;99826.00;;;;5013005;28;20467;-50
2023/11/30 03:54:35;;;;;;;3.42;1.48;;;20.00;41.80;20.80;99823.00;;;;5015262;28;20083;-52
2023/11/30 03:57:01;;;;;;;5.10;1.48;;;20.00;41.80;20.80;99820.00;;;;5036607;28;20033;-51
2023/11/30 03:59:27;;;;;;;1.40;1.23;;;20.00;41.80;20.80;99819.00;;;;5012864;28;20030;-52
2023/11/30 04:01:54;;;;;;;1.75;1.65;;;20.00;41.80;20.80;99831.00;;;;5014296;28;20033;-53
2023/11/30 04:04:21;;;;;;;1.55;1.20;;;20.00;41.80;20.80;99831.00;;;;5014752;28;20036;-50
2023/11/30 04:06:47;;;;;;;1.33;1.23;;;20.00;41.80;20.80;99819.00;;;;5013508;28;20033;-52
2023/11/30 04:09:14;;;;;;;2.08;1.88;;;20.00;41.80;20.80;99811.00;;;;5021486;28;20115;-52
2023/11/30 04:12:00;;;;;;;1.48;1.10;;;20.00;41.80;20.80;99805.00;;;;5015321;28;20030;-50
2023/11/30 04:14:26;;;;;;;2.60;1.42;;;20.00;41.70;20.80;99803.00;;;;5015692;28;20033;-49
2023/11/30 04:16:52;;;;;;;3.10;2.13;;;20.00;41.70;20.80;99805.00;;;;5015064;28;20037;-50
2023/11/30 04:19:17;;;;;;;1.50;1.40;;;20.00;41.80;20.80;99824.00;;;;4999089;28;20039;-45
2023/11/30 04:21:43;;;;;;;1.73;1.63;;;20.00;41.70;20.80;99833.00;;;;5015295;28;20049;-46
2023/11/30 04:24:10;;;;;;;1.52;1.25;;;20.00;41.70;20.80;99827.00;;;;5015434;28;20030;-45
2023/11/30 04:26:36;;;;;;;1.45;1.45;;;20.00;41.70;20.80;99827.00;;;;5004342;28;20065;-46
2023/11/30 04:29:02;;;;;;;1.17;1.15;;;20.00;41.70;20.80;99807.00;;;;5013897;28;20037;-45
2023/11/30 04:31:28;;;;;;;4.47;1.85;;;20.00;41.70;20.80;99803.00;;;;5015563;28;20029;-45
2023/11/30 04:33:54;;;;;;;3.22;1.05;;;20.00;41.70;20.80;99790.00;;;;5013408;28;20095;-46
2023/11/30 04:36:20;;;;;;;1.20;1.13;;;20.00;41.70;20.80;99793.00;;;;5020825;28;20091;-45
2023/11/30 04:38:46;;;;;;;1.90;1.30;;;19.90;41.70;20.80;99795.00;;;;5015453;28;20263;-49
2023/11/30 04:41:12;;;;;;;1.40;1.30;;;20.00;41.70;20.80;99795.00;;;;5014516;28;20120;-51
2023/11/30 04:43:40;;;;;;;1.40;1.30;;;20.00;41.80;20.80;99785.00;;;;5015833;28;20382;-50
2023/11/30 04:46:06;;;;;;;2.15;1.15;;;19.90;41.70;20.80;99793.00;;;;5015735;28;20045;-52
2023/11/30 04:48:32;;;;;;;1.45;1.13;;;20.00;41.80;20.80;99789.00;;;;5015608;28;20390;-49
2023/11/30 04:50:58;;;;;;;1.85;1.15;;;19.90;41.70;20.70;99786.00;;;;5013519;28;20034;-50
2023/11/30 04:53:24;;;;;;;2.30;0.90;;;19.90;41.70;20.70;99786.00;;;;4980346;28;20077;-48
2023/11/30 04:55:50;;;;;;;0.60;0.60;;;19.90;41.70;20.70;99785.00;;;;5014207;28;20504;-49
2023/11/30 04:58:17;;;;;;;0.90;0.80;;;19.90;41.70;20.70;99787.00;;;;5013928;28;20435;-48
2023/11/30 05:00:43;;;;;;;1.27;1.20;;;19.90;41.70;20.70;99784.00;;;;5019275;28;20043;-51
2023/11/30 05:03:09;;;;;;;1.48;1.10;;;19.90;41.60;20.70;99789.00;;;;5016070;28;20037;-49
2023/11/30 05:05:35;;;;;;;1.48;1.20;;;19.90;41.60;20.70;99800.00;;;;5017910;28;20084;-50
2023/11/30 05:08:01;;;;;;;1.50;0.85;;;19.90;41.60;20.70;99795.00;;;;5018151;28;20129;-51
2023/11/30 05:10:26;;;;;;;0.88;0.85;;;19.90;41.60;20.70;99791.00;;;;5017225;28;20140;-49
2023/11/30 05:12:52;;;;;;;1.60;1.30;;;19.90;41.60;20.70;99775.00;;;;5019443;28;20790;-48
2023/11/30 05:15:18;;;;;;;1.10;0.93;;;19.90;41.60;20.70;99778.00;;;;5018687;28;20037;-50
2023/11/30 05:17:44;;;;;;;0.85;0.82;;;19.90;41.60;20.70;99761.00;;;;5018352;28;20038;-49
2023/11/30 05:20:10;;;;;;;1.50;0.93;;;19.90;41.60;20.70;99760.00;;;;5017661;28;20684;-45
2023/11/30 05:22:36;;;;;;;1.25;0.90;;;19.90;41.60;20.70;99759.00;;;;5017087;28;20034;-45
2023/11/30 05:25:03;;;;;;;1.83;0.90;;;19.90;41.60;20.70;99772.00;;;;5017105;28;20114;-45
2023/11/30 05:27:48;;;;;;;0.75;0.75;;;19.90;41.50;20.70;99775.00;;;;5018728;28;20091;-46
2023/11/30 05:30:14;;;;;;;0.50;0.45;;;19.90;41.50;20.70;99779.00;;;;5023126;28;20049;-45
2023/11/30 05:32:40;;;;;;;2.50;1.02;;;19.90;41.60;20.70;99794.00;;;;5018638;28;20115;-45
2023/11/30 05:35:07;;;;;;;1.67;1.15;;;19.90;41.60;20.70;99788.00;;;;5017237;28;20037;-45
2023/11/30 05:37:33;;;;;;;0.70;0.70;;;19.90;41.60;20.70;99782.00;;;;5032714;28;20033;-45
2023/11/30 05:39:59;;;;;;;1.30;1.17;;;19.90;41.60;20.70;99787.00;;;;5019143;28;20537;-45
2023/11/30 05:42:25;;;;;;;0.60;0.60;;;19.90;41.60;20.70;99795.00;;;;5017465;28;20037;-45
2023/11/30 05:45:10;;;;;;;0.68;0.55;;;19.90;41.60;20.70;99787.00;;;;5017556;28;20041;-45
2023/11/30 05:47:36;;;;;;;0.95;0.60;;;19.90;41.60;20.70;99787.00;;;;5016907;28;20133;-45
2023/11/30 05:50:03;;;;;;;0.77;0.77;;;19.90;41.50;20.70;99779.00;;;;5040480;28;20029;-45
2023/11/30 05:52:29;;;;;;;2.05;0.38;;;19.90;41.50;20.70;99773.00;;;;5016468;28;20061;-44
2023/11/30 05:54:57;;;;;;;1.42;0.77;;;19.90;41.50;20.70;99779.00;;;;4999295;28;20552;-45
2023/11/30 05:57:23;;;;;;;2.45;0.40;;;19.90;41.40;20.70;99792.00;;;;5015739;28;20030;-47
2023/11/30 05:59:49;;;;;;;0.70;0.70;;;19.90;41.50;20.70;99791.00;;;;5017529;28;20048;-51
2023/11/30 06:02:18;;;;;;;1.05;0.65;;;19.80;41.40;20.70;99788.00;;;;5016307;28;20033;-52
2023/11/30 06:04:51;;;;;;;0.63;0.60;;;19.80;41.40;20.70;99775.00;;;;5017748;28;20037;-52
2023/11/30 06:07:18;;;;;;;0.35;0.20;;;19.80;41.40;20.70;99773.00;;;;5017115;28;20041;-50
2023/11/30 06:09:44;;;;;;;0.70;0.45;;;19.80;41.30;20.60;99762.00;;;;5017550;28;20040;-49
2023/11/30 06:12:11;;;;;;;0.30;0.30;;;19.80;41.30;20.60;99763.00;;;;5016888;28;20033;-50
2023/11/30 06:14:37;;;;;;;1.05;0.63;;;19.80;41.30;20.60;99756.00;;;;5016094;28;20048;-50
2023/11/30 06:17:03;;;;;;;0.40;0.20;;;19.80;41.30;20.60;99760.00;;;;5015849;28;20571;-50
2023/11/30 06:19:30;;;;;;;1.10;0.30;;;19.80;41.30;20.60;99757.00;;;;5017115;28;20037;-50
2023/11/30 06:21:56;;;;;;;10.82;2.38;;;19.90;41.40;20.60;99756.00;;;;5016889;28;20029;-49
2023/11/30 06:24:22;;;;;;;16.60;3.03;;;19.80;41.30;20.60;99763.00;;;;5007309;28;20029;-50
2023/11/30 06:26:48;;;;;;;21.83;3.33;;;19.80;41.30;20.60;99764.00;;;;5015556;28;20080;-51
2023/11/30 06:29:15;;;;;;;16.20;5.38;;;19.80;41.30;20.60;99771.00;;;;5016836;28;20038;-51
2023/11/30 06:31:42;;;;;;;23.65;5.63;;;19.90;41.40;20.60;99768.00;;;;5015517;28;20060;-51
2023/11/30 06:34:08;;;;;;;16.77;3.25;;;19.80;41.40;20.60;99771.00;;;;5015767;28;20041;-49
2023/11/30 06:36:34;;;;;;;14.30;3.38;;;19.80;41.40;20.60;99770.00;;;;5017362;28;20032;-50
2023/11/30 06:39:00;;;;;;;7.00;1.75;;;19.80;41.40;20.60;99775.00;;;;5016337;28;20034;-51
2023/11/30 06:41:26;;;;;;;8.00;1.48;;;19.80;41.40;20.60;99791.00;;;;5016203;28;20524;-50
2023/11/30 06:43:52;;;;;;;8.70;2.15;;;19.80;41.30;20.60;99780.00;;;;5015744;28;20030;-50
2023/11/30 06:46:25;;;;;;;5.80;1.45;;;19.80;41.30;20.60;99768.00;;;;5015479;28;20055;-48
2023/11/30 06:48:51;;;;;;;6.65;1.25;;;19.80;41.30;20.60;99764.00;;;;5014215;28;20033;-53
2023/11/30 06:51:18;;;;;;;3.00;0.63;;;19.80;41.20;20.60;99770.00;;;;5015522;28;20038;-48
2023/11/30 06:53:50;;;;;;;2.80;0.30;;;19.80;41.20;20.60;99769.00;;;;5014686;28;20065;-50
2023/11/30 06:56:16;;;;;;;5.28;0.20;;;19.80;41.20;20.60;99777.00;;;;5002103;28;20693;-49
2023/11/30 06:58:42;;;;;;;1.48;0.30;;;19.80;41.20;20.60;99774.00;;;;5013661;28;20041;-49
2023/11/30 07:01:09;;;;;;;1.23;0.75;;;19.80;41.20;20.60;99779.00;;;;5022927;28;20041;-47
2023/11/30 07:03:35;;;;;;;2.35;0.40;;;19.80;41.10;20.60;99780.00;;;;5015851;28;20091;-49
2023/11/30 07:06:02;;;;;;;2.15;0.20;;;19.80;41.10;20.60;99779.00;;;;5013823;28;20423;-51
2023/11/30 07:08:28;;;;;;;0.85;0.40;;;19.80;41.10;20.60;99774.00;;;;5014600;28;20107;-48
2023/11/30 07:10:55;;;;;;;0.55;0.22;;;19.80;41.10;20.60;99764.00;;;;5017586;28;20105;-49
2023/11/30 07:13:21;;;;;;;0.45;0.10;;;19.80;41.10;20.60;99752.00;;;;5015743;28;20041;-49
2023/11/30 07:15:47;;;;;;;1.48;0.20;;;19.80;41.10;20.60;99747.00;;;;5014865;28;20080;-51
2023/11/30 07:18:13;;;;;;;0.40;0.20;;;19.80;41.10;20.60;99742.00;;;;5014502;28;20069;-52
2023/11/30 07:20:40;;;;;;;0.45;0.10;;;19.80;41.10;20.60;99750.00;;;;5016137;28;20479;-51
2023/11/30 07:23:06;;;;;;;1.33;0.40;;;19.80;41.10;20.60;99755.00;;;;5013747;28;20056;-49
2023/11/30 07:25:32;;;;;;;0.52;0.20;;;19.80;41.10;20.60;99769.00;;;;5015604;28;20040;-49
2023/11/30 07:27:59;;;;;;;0.20;0.10;;;19.80;41.10;20.60;99773.00;;;;5013317;28;20029;-50
2023/11/30 07:30:25;;;;;;;1.60;0.30;;;19.80;41.10;20.60;99771.00;;;;5014801;28;20037;-48
2023/11/30 07:32:53;;;;;;;0.30;0.10;;;19.80;41.10;20.60;99783.00;;;;5014558;28;20163;-49
2023/11/30 07:35:19;;;;;;;0.68;0.68;;;19.80;41.10;20.60;99783.00;;;;5016090;28;20099;-52
2023/11/30 07:37:45;;;;;;;0.73;0.22;;;19.80;41.10;20.60;99785.00;;;;5015720;28;20034;-49
2023/11/30 07:40:11;;;;;;;0.82;0.30;;;19.80;41.10;20.60;99789.00;;;;5015747;28;20764;-47
2023/11/30 07:42:37;;;;;;;0.55;0.10;;;19.80;41.10;20.60;99793.00;;;;5015543;28;20483;-47
2023/11/30 07:45:04;;;;;;;0.85;0.22;;;19.80;41.10;20.60;99790.00;;;;5015681;28;20038;-46
2023/11/30 07:47:32;;;;;;;0.20;0.20;;;19.80;41.10;20.60;99785.00;;;;5014785;28;20037;-45
2023/11/30 07:49:59;;;;;;;0.20;0.10;;;19.80;41.00;20.60;99780.00;;;;5004813;28;20037;-45
2023/11/30 07:52:24;;;;;;;0.20;0.10;;;19.80;41.00;20.60;99784.00;;;;5013382;28;20057;-45
2023/11/30 07:54:50;;;;;;;0.10;0.10;;;19.80;41.00;20.60;99786.00;;;;5015709;28;20030;-45
2023/11/30 07:57:17;;;;;;;0.40;0.10;;;19.80;41.00;20.60;99783.00;;;;5014411;28;20044;-45
2023/11/30 07:59:44;;;;;;;0.13;0.10;;;19.80;41.00;20.60;99772.00;;;;5015980;28;20021;-45
2023/11/30 08:02:10;;;;;;;0.10;0.10;;;19.80;41.00;20.60;99790.00;;;;5014286;28;20042;-46
2023/11/30 08:04:36;;;;;;;0.47;0.10;;;19.80;40.90;20.60;99795.00;;;;5014560;28;20556;-45
2023/11/30 08:07:03;;;;;;;1.65;0.20;;;19.80;40.90;20.60;99791.00;;;;5014681;28;20421;-46
2023/11/30 08:09:30;;;;;;;0.30;0.10;;;19.80;40.90;20.60;99800.00;;;;5013697;28;20584;-45
2023/11/30 08:11:57;;;;;;;1.05;0.10;;;19.80;40.90;20.60;99796.00;;;;5014787;28;20498;-45
2023/11/30 08:14:22;;;;;;;0.47;0.10;;;19.80;41.00;20.60;99808.00;;;;5016527;28;20064;-46
2023/11/30 08:16:48;;;;;;;0.20;0.10;;;19.80;41.00;20.60;99819.00;;;;5015947;28;20049;-46
2023/11/30 08:19:14;;;;;;;1.25;0.20;;;19.80;41.00;20.60;99828.00;;;;5014815;28;20120;-50
2023/11/30 08:21:41;;;;;;;1.90;0.10;;;19.70;40.90;20.60;99826.00;;;;5015391;28;20045;-50
2023/11/30 08:24:08;;;;;;;0.63;0.13;;;19.80;41.00;20.60;99820.00;;;;5014922;28;20043;-52
2023/11/30 08:26:34;;;;;;;0.20;0.20;;;19.70;40.90;20.60;99825.00;;;;5012051;28;20041;-52
2023/11/30 08:29:00;;;;;;;0.20;0.20;;;19.80;41.00;20.60;99830.00;;;;5014897;28;20541;-49
2023/11/30 08:31:27;;;;;;;0.38;0.10;;;19.80;41.00;20.60;99825.00;;;;5021142;28;20048;-54
2023/11/30 08:33:54;;;;;;;0.32;0.20;;;19.80;41.10;20.60;99832.00;;;;5015153;28;20033;-51
2023/11/30 08:36:21;;;;;;;0.30;0.10;;;19.80;41.00;20.60;99829.00;;;;5018648;28;20037;-49
2023/11/30 08:39:05;;;;;;;0.70;0.32;;;19.80;41.10;20.60;99826.00;;;;5019759;28;20103;-50
2023/11/30 08:41:32;;;;;;;0.80;0.52;;;19.80;41.00;20.60;99821.00;;;;5018457;28;20060;-52
2023/11/30 08:43:58;;;;;;;0.77;0.35;;;19.80;41.00;20.60;99821.00;;;;5019472;28;20060;-53
2023/11/30 08:46:24;;;;;;;1.30;0.20;;;19.80;41.00;20.60;99826.00;;;;5018971;28;20041;-50
2023/11/30 08:48:50;;;;;;;0.82;0.40;;;19.80;41.00;20.60;99832.00;;;;5017325;28;20057;-50
2023/11/30 08:51:16;;;;;;;1.65;0.20;;;19.80;40.90;20.60;99839.00;;;;5019688;28;20058;-51
2023/11/30 08:53:42;;;;;;;1.15;0.40;;;19.80;40.90;20.60;99844.00;;;;5018055;28;20042;-52
2023/11/30 08:56:08;;;;;;;2.13;0.22;;;19.80;40.90;20.60;99851.00;;;;5017543;28;20072;-48
2023/11/30 08:58:34;;;;;;;0.52;0.32;;;19.80;40.90;20.60;99852.00;;;;5017297;28;20038;-51
2023/11/30 09:01:00;;;;;;;0.35;0.20;;;19.80;40.90;20.60;99853.00;;;;5017477;28;20041;-49
2023/11/30 09:03:26;;;;;;;1.85;1.25;;;19.80;40.90;20.60;99859.00;;;;5020382;28;20053;-49
2023/11/30 09:05:52;;;;;;;1.55;0.95;;;19.80;40.90;20.60;99861.00;;;;5016822;28;20091;-49
2023/11/30 09:08:18;;;;;;;0.88;0.40;;;19.80;40.90;20.60;99862.00;;;;5018440;28;20041;-48
2023/11/30 09:10:44;;;;;;;0.45;0.40;;;19.80;40.90;20.60;99865.00;;;;5015878;28;20064;-49
2023/11/30 09:13:10;;;;;;;1.05;0.28;;;19.80;41.00;20.60;99869.00;;;;5017786;28;20099;-50
2023/11/30 09:15:36;;;;;;;2.17;0.20;;;19.80;41.00;20.60;99868.00;;;;5018518;28;20409;-48
2023/11/30 09:18:03;;;;;;;0.85;0.20;;;19.80;41.00;20.60;99864.00;;;;5019646;28;20075;-50
2023/11/30 09:20:29;;;;;;;6.25;0.70;;;19.80;41.00;20.60;99867.00;;;;5019525;28;20033;-45
2023/11/30 09:22:56;;;;;;;1.65;0.30;;;19.80;41.00;20.60;99870.00;;;;5018831;28;20029;-45
2023/11/30 09:25:21;;;;;;;0.57;0.30;;;19.80;41.00;20.60;99867.00;;;;5019482;28;20033;-45
2023/11/30 09:27:47;;;;;;;1.27;0.55;;;19.80;41.00;20.70;99872.00;;;;5019655;28;20454;-44
2023/11/30 09:30:14;;;;;;;0.80;0.75;;;19.80;41.00;20.70;99881.00;;;;5019255;28;20690;-45
2023/11/30 09:32:40;;;;;;;1.15;0.20;;;19.80;40.90;20.70;99879.00;;;;5016851;28;20091;-46
2023/11/30 09:35:06;;;;;;;0.90;0.60;;;19.80;40.90;20.70;99869.00;;;;5017561;28;20749;-46
2023/11/30 09:37:33;;;;;;;0.98;0.30;;;19.80;40.90;20.70;99861.00;;;;5020395;28;20029;-45
2023/11/30 09:39:59;;;;;;;0.20;0.20;;;19.80;40.90;20.70;99860.00;;;;4984310;28;20506;-50
2023/11/30 09:42:26;;;;;;;0.30;0.20;;;19.80;40.80;20.70;99857.00;;;;5017665;28;20381;-50
2023/11/30 09:44:54;;;;;;;0.40;0.30;;;19.80;40.80;20.70;99854.00;;;;5022704;28;20030;-52
2023/11/30 09:47:21;;;;;;;1.65;0.43;;;19.80;40.80;20.70;99860.00;;;;5017247;28;20080;-52
2023/11/30 09:49:47;;;;;;;0.57;0.35;;;19.80;40.80;20.70;99852.00;;;;5008519;28;20042;-50
2023/11/30 09:52:13;;;;;;;1.50;0.95;;;19.80;40.70;20.70;99858.00;;;;5016952;28;20041;-50
2023/11/30 09:54:59;;;;;;;0.40;0.32;;;19.80;40.70;20.70;99861.00;;;;5020023;28;20025;-53
2023/11/30 09:57:25;;;;;;;0.45;0.30;;;19.80;40.70;20.70;99857.00;;;;5016060;28;20045;-50
2023/11/30 09:59:51;;;;;;;0.73;0.40;;;19.80;40.70;20.70;99864.00;;;;5001097;28;20139;-51
2023/11/30 10:02:19;;;;;;;1.23;0.35;;;19.90;40.70;20.80;99862.00;;;;5017316;28;20030;-52
2023/11/30 10:04:45;;;;;;;0.90;0.50;;;19.90;40.70;20.80;99852.00;;;;5017053;28;20356;-51
2023/11/30 10:07:11;;;;;;;0.20;0.20;;;19.90;40.60;20.80;99852.00;;;;5016965;28;20041;-52
2023/11/30 10:09:37;;;;;;;1.23;0.30;;;19.90;40.70;20.80;99858.00;;;;5019188;28;20048;-52
2023/11/30 10:12:07;;;;;;;0.45;0.45;;;19.80;40.60;20.80;99864.00;;;;5017162;28;20119;-51
2023/11/30 10:14:33;;;;;;;0.50;0.28;;;19.90;40.60;20.80;99866.00;;;;5019745;28;20034;-49
2023/11/30 10:17:00;;;;;;;1.35;0.40;;;19.90;40.60;20.80;99862.00;;;;5016374;28;20038;-51
2023/11/30 10:19:26;;;;;;;0.20;0.20;;;19.90;40.70;20.80;99866.00;;;;5017086;28;20141;-45
2023/11/30 10:21:55;;;;;;;0.40;0.30;;;19.90;40.60;20.80;99855.00;;;;5030915;28;20042;-45
2023/11/30 10:24:23;;;;;;;0.20;0.20;;;19.90;40.70;20.80;99850.00;;;;5038998;28;20045;-45
2023/11/30 10:26:52;;;;;;;0.65;0.60;;;19.90;40.70;20.80;99850.00;;;;5023174;28;20546;-45
2023/11/30 10:29:20;;;;;;;1.08;0.50;;;19.90;40.70;20.90;99846.00;;;;5013617;28;20049;-45
2023/11/30 10:31:51;;;;;;;0.75;0.25;;;19.90;40.70;20.90;99837.00;;;;5015996;28;20045;-45
2023/11/30 10:34:27;;;;;;;1.73;0.20;;;19.90;40.60;20.90;99841.00;;;;5007174;28;20506;-44
2023/11/30 10:36:58;;;;;;;0.45;0.40;;;20.00;40.70;20.90;99840.00;;;;5018771;28;20572;-45
2023/11/30 10:39:25;;;;;;;0.68;0.28;;;20.00;40.80;20.90;99837.00;;;;5015876;28;20048;-45
2023/11/30 10:41:53;;;;;;;0.90;0.40;;;20.00;40.70;20.90;99839.00;;;;5015245;28;20034;-45
2023/11/30 10:44:28;;;;;;;0.50;0.32;;;20.00;40.70;20.90;99835.00;;;;5006122;28;20030;-45
2023/11/30 10:46:59;;;;;;;0.63;0.30;;;20.00;40.70;20.90;99826.00;;;;5005741;28;20677;-45
2023/11/30 10:49:46;;;;;;;1.55;0.17;;;20.00;40.70;20.90;99820.00;;;;5014635;28;20096;-46
2023/11/30 10:52:13;;;;;;;0.47;0.47;;;20.00;40.70;21.00;99822.00;;;;5006289;28;20064;-45
2023/11/30 10:55:16;;;;;;;2.13;0.35;;;20.00;40.70;21.00;99820.00;;;;4981230;28;20144;-45